createdAt,value
2018-09-15T00:00:46.187Z,7.77
2018-09-15T00:03:14.310Z,6.90
2018-09-15T00:05:42.435Z,7.70
2018-09-15T00:08:10.531Z,8.17
2018-09-15T00:10:38.647Z,7.97
2018-09-15T00:13:06.747Z,7.37
2018-09-15T00:15:34.852Z,7.83
2018-09-15T00:18:05.052Z,8.60
2018-09-15T00:20:33.173Z,8.60
2018-09-15T00:23:01.325Z,8.00
2018-09-15T00:25:29.371Z,8.10
2018-09-15T00:27:57.488Z,9.00
2018-09-15T00:30:25.587Z,9.90
2018-09-15T00:32:53.696Z,10.07
2018-09-15T00:35:21.869Z,9.43
2018-09-15T00:37:50.089Z,10.00
2018-09-15T00:40:18.215Z,9.97
2018-09-15T00:42:46.487Z,9.97
2018-09-15T00:45:14.775Z,11.37
2018-09-15T00:47:42.912Z,14.00
2018-09-15T00:50:11.012Z,19.97
2018-09-15T00:52:39.238Z,18.77
2018-09-15T00:55:07.328Z,18.60
2018-09-15T00:57:35.446Z,18.80
2018-09-15T01:00:03.976Z,17.47
2018-09-15T01:02:32.088Z,18.03
2018-09-15T01:05:00.215Z,18.60
2018-09-15T01:07:28.340Z,19.00
2018-09-15T01:09:56.447Z,19.00
2018-09-15T01:12:24.569Z,18.17
2018-09-15T01:14:52.672Z,19.73
2018-09-15T01:17:20.808Z,20.37
2018-09-15T01:19:48.912Z,19.87
2018-09-15T01:22:17.295Z,19.40
2018-09-15T01:24:45.772Z,20.70
2018-09-15T01:27:13.891Z,22.03
2018-09-15T01:29:42.021Z,19.60
2018-09-15T01:32:10.140Z,22.23
2018-09-15T01:34:38.254Z,20.33
2018-09-15T01:37:06.385Z,20.90
2018-09-15T01:39:34.487Z,18.93
2018-09-15T01:42:02.586Z,22.10
2018-09-15T01:44:30.682Z,20.60
2018-09-15T01:46:58.949Z,20.77
2018-09-15T01:49:27.062Z,21.13
2018-09-15T01:51:55.193Z,20.53
2018-09-15T01:54:23.285Z,21.17
2018-09-15T01:56:51.382Z,21.07
2018-09-15T01:59:19.478Z,19.43
2018-09-15T02:01:47.593Z,20.20
2018-09-15T02:04:15.844Z,20.80
2018-09-15T02:06:43.952Z,19.67
2018-09-15T02:09:13.835Z,21.03
2018-09-15T02:11:42.022Z,21.50
2018-09-15T02:14:10.310Z,21.27
2018-09-15T02:16:38.391Z,19.37
2018-09-15T02:19:06.494Z,20.00
2018-09-15T02:21:34.582Z,19.97
2018-09-15T02:24:02.695Z,20.57
2018-09-15T02:26:30.790Z,21.27
2018-09-15T02:28:58.969Z,20.00
2018-09-15T02:31:27.024Z,21.10
2018-09-15T02:33:55.299Z,20.90
2018-09-15T02:36:23.391Z,20.50
2018-09-15T02:38:51.487Z,21.60
2018-09-15T02:41:19.587Z,22.60
2018-09-15T02:43:47.689Z,22.20
2018-09-15T02:46:16.275Z,21.30
2018-09-15T02:48:44.557Z,21.00
2018-09-15T02:51:12.679Z,21.77
2018-09-15T02:53:41.012Z,20.60
2018-09-15T02:56:09.102Z,22.70
2018-09-15T02:58:37.226Z,24.20
2018-09-15T03:01:05.323Z,22.40
2018-09-15T03:03:33.411Z,23.00
2018-09-15T03:06:01.514Z,23.30
2018-09-15T03:08:29.649Z,23.07
2018-09-15T03:10:57.790Z,20.80
2018-09-15T03:13:25.987Z,24.03
2018-09-15T03:15:54.255Z,22.80
2018-09-15T03:18:22.443Z,22.50
2018-09-15T03:20:50.568Z,24.50
2018-09-15T03:23:18.681Z,25.13
2018-09-15T03:25:46.798Z,23.23
2018-09-15T03:28:15.013Z,25.17
2018-09-15T03:30:43.114Z,25.50
2018-09-15T03:33:11.215Z,25.13
2018-09-15T03:35:39.347Z,22.90
2018-09-15T03:38:07.459Z,20.43
2018-09-15T03:40:35.586Z,17.93
2018-09-15T03:43:03.695Z,18.77
2018-09-15T03:45:31.831Z,17.80
2018-09-15T03:47:59.913Z,17.00
2018-09-15T03:50:28.018Z,16.33
2018-09-15T03:52:56.156Z,14.87
2018-09-15T03:55:24.295Z,14.23
2018-09-15T03:57:52.394Z,13.93
2018-09-15T04:00:20.516Z,11.97
2018-09-15T04:02:48.631Z,13.80
2018-09-15T04:05:16.796Z,12.80
2018-09-15T04:07:44.900Z,11.87
2018-09-15T04:10:13.062Z,11.70
2018-09-15T04:12:41.180Z,11.57
2018-09-15T04:15:09.300Z,11.93
2018-09-15T04:17:37.400Z,10.77
2018-09-15T04:20:05.510Z,10.67
2018-09-15T04:22:33.931Z,10.40
2018-09-15T04:25:02.130Z,10.57
2018-09-15T04:27:30.236Z,9.33
2018-09-15T04:29:58.359Z,10.53
2018-09-15T04:32:26.462Z,10.40
2018-09-15T04:34:54.567Z,9.10
2018-09-15T04:37:22.688Z,9.23
2018-09-15T04:39:50.819Z,8.80
2018-09-15T04:42:18.923Z,7.30
2018-09-15T04:44:47.010Z,8.10
2018-09-15T04:47:15.121Z,8.00
2018-09-15T04:49:43.230Z,7.53
2018-09-15T04:52:11.336Z,7.60
2018-09-15T04:54:39.562Z,7.40
2018-09-15T04:57:07.675Z,8.10
2018-09-15T04:59:35.770Z,6.67
2018-09-15T05:02:03.885Z,7.03
2018-09-15T05:04:32.012Z,6.47
2018-09-15T05:07:00.171Z,7.63
2018-09-15T05:09:28.283Z,7.10
2018-09-15T05:11:56.422Z,6.70
2018-09-15T05:14:24.506Z,7.40
2018-09-15T05:16:52.627Z,7.27
2018-09-15T05:19:20.720Z,6.83
2018-09-15T05:21:48.831Z,6.70
2018-09-15T05:24:16.954Z,6.10
2018-09-15T05:26:45.079Z,6.93
2018-09-15T05:29:13.189Z,5.33
2018-09-15T05:31:41.380Z,5.60
2018-09-15T05:34:09.406Z,6.47
2018-09-15T05:36:37.588Z,5.83
2018-09-15T05:39:08.591Z,6.67
2018-09-15T05:41:36.818Z,6.23
2018-09-15T05:44:04.909Z,5.77
2018-09-15T05:46:33.035Z,7.33
2018-09-15T05:49:01.248Z,6.30
2018-09-15T05:51:29.356Z,6.80
2018-09-15T05:53:57.458Z,6.60
2018-09-15T05:56:25.553Z,6.90
2018-09-15T05:58:53.651Z,6.70
2018-09-15T06:01:21.759Z,7.10
2018-09-15T06:03:49.888Z,7.10
2018-09-15T06:06:18.655Z,7.00
2018-09-15T06:08:46.760Z,7.17
2018-09-15T06:11:14.890Z,6.90
2018-09-15T06:13:43.094Z,7.07
2018-09-15T06:16:11.185Z,7.50
2018-09-15T06:18:39.295Z,7.10
2018-09-15T06:21:07.602Z,8.40
2018-09-15T06:23:35.709Z,7.10
2018-09-15T06:26:03.840Z,7.00
2018-09-15T06:28:32.136Z,7.57
2018-09-15T06:31:00.303Z,7.60
2018-09-15T06:33:28.400Z,7.20
2018-09-15T06:35:56.538Z,7.03
2018-09-15T06:38:24.675Z,7.53
2018-09-15T06:40:52.786Z,6.87
2018-09-15T06:43:20.879Z,7.63
2018-09-15T06:45:49.085Z,6.80
2018-09-15T06:48:17.112Z,6.63
2018-09-15T06:50:45.218Z,6.10
2018-09-15T06:53:13.416Z,5.80
2018-09-15T06:55:41.519Z,5.83
2018-09-15T06:58:10.019Z,6.10
2018-09-15T07:00:38.151Z,5.80
2018-09-15T07:03:06.255Z,6.07
2018-09-15T07:05:34.367Z,6.23
2018-09-15T07:08:03.304Z,5.10
2018-09-15T07:10:31.634Z,4.40
2018-09-15T07:12:59.795Z,5.80
2018-09-15T07:15:27.957Z,4.23
2018-09-15T07:17:56.070Z,5.00
2018-09-15T07:20:24.188Z,4.60
2018-09-15T07:22:52.295Z,4.57
2018-09-15T07:25:20.372Z,4.00
2018-09-15T07:27:48.495Z,4.00
2018-09-15T07:30:16.975Z,4.27
2018-09-15T07:32:46.890Z,5.00
2018-09-15T07:35:15.087Z,3.60
2018-09-15T07:37:43.269Z,3.93
2018-09-15T07:40:11.314Z,3.70
2018-09-15T07:42:39.435Z,4.57
2018-09-15T07:45:07.708Z,4.00
2018-09-15T07:47:35.811Z,3.40
2018-09-15T07:50:03.932Z,3.70
2018-09-15T07:52:32.027Z,3.43
2018-09-15T07:55:00.119Z,3.03
2018-09-15T07:57:28.244Z,3.27
2018-09-15T07:59:56.387Z,3.30
2018-09-15T08:02:24.474Z,3.67
2018-09-15T08:04:52.597Z,3.13
2018-09-15T08:07:20.701Z,5.50
2018-09-15T08:09:48.843Z,3.30
2018-09-15T08:12:17.943Z,3.00
2018-09-15T08:14:46.052Z,2.97
2018-09-15T08:17:14.240Z,2.47
2018-09-15T08:19:42.572Z,3.70
2018-09-15T08:22:10.691Z,3.00
2018-09-15T08:24:38.791Z,2.30
2018-09-15T08:27:07.088Z,3.73
2018-09-15T08:29:35.236Z,2.80
2018-09-15T08:32:03.412Z,2.77
2018-09-15T08:34:31.491Z,3.03
2018-09-15T08:36:59.584Z,2.73
2018-09-15T08:39:27.706Z,2.93
2018-09-15T08:41:55.784Z,2.93
2018-09-15T08:44:23.879Z,3.80
2018-09-15T08:46:52.003Z,3.30
2018-09-15T08:49:20.114Z,3.10
2018-09-15T08:51:48.185Z,2.97
2018-09-15T08:54:16.334Z,3.80
2018-09-15T08:56:44.440Z,3.50
2018-09-15T08:59:12.561Z,3.67
2018-09-15T09:01:40.668Z,4.10
2018-09-15T09:04:08.794Z,3.70
2018-09-15T09:06:36.908Z,4.00
2018-09-15T09:09:07.878Z,3.67
2018-09-15T09:11:35.995Z,3.50
2018-09-15T09:14:04.080Z,3.63
2018-09-15T09:16:32.183Z,3.20
2018-09-15T09:19:00.283Z,3.33
2018-09-15T09:21:28.383Z,3.17
2018-09-15T09:23:56.488Z,3.47
2018-09-15T09:26:24.832Z,2.80
2018-09-15T09:28:52.802Z,2.37
2018-09-15T09:31:20.903Z,3.60
2018-09-15T09:33:48.997Z,2.63
2018-09-15T09:36:17.087Z,3.00
2018-09-15T09:38:45.167Z,2.70
2018-09-15T09:41:13.259Z,1.87
2018-09-15T09:43:41.339Z,2.00
2018-09-15T09:46:09.440Z,2.00
2018-09-15T09:48:37.528Z,1.70
2018-09-15T09:51:05.752Z,1.97
2018-09-15T09:53:33.905Z,1.80
2018-09-15T09:56:02.003Z,1.47
2018-09-15T09:58:30.098Z,1.63
2018-09-15T10:00:58.959Z,1.50
2018-09-15T10:03:27.553Z,1.60
2018-09-15T10:05:55.661Z,2.33
2018-09-15T10:08:23.775Z,1.57
2018-09-15T10:10:51.866Z,1.87
2018-09-15T10:13:19.935Z,1.80
2018-09-15T10:15:48.113Z,1.93
2018-09-15T10:18:16.150Z,1.77
2018-09-15T10:20:44.243Z,2.33
2018-09-15T10:23:12.331Z,1.47
2018-09-15T10:25:40.410Z,2.10
2018-09-15T10:28:08.532Z,1.90
2018-09-15T10:30:36.624Z,2.23
2018-09-15T10:33:04.747Z,3.10
2018-09-15T10:35:32.836Z,2.27
2018-09-15T10:38:00.966Z,2.30
2018-09-15T10:40:29.099Z,2.23
2018-09-15T10:42:57.154Z,2.80
2018-09-15T10:45:25.245Z,1.80
2018-09-15T10:47:53.336Z,2.97
2018-09-15T10:50:21.419Z,1.73
2018-09-15T10:52:49.590Z,2.03
2018-09-15T10:55:17.675Z,2.07
2018-09-15T10:57:45.756Z,1.90
2018-09-15T11:00:13.886Z,2.00
2018-09-15T11:02:41.979Z,2.10
2018-09-15T11:05:10.069Z,1.67
2018-09-15T11:07:38.143Z,1.60
2018-09-15T11:10:06.232Z,2.20
2018-09-15T11:12:34.316Z,1.60
2018-09-15T11:15:02.402Z,1.40
2018-09-15T11:17:30.479Z,1.27
2018-09-15T11:19:58.579Z,1.10
2018-09-15T11:22:26.670Z,1.13
2018-09-15T11:24:54.740Z,1.00
2018-09-15T11:27:22.836Z,1.10
2018-09-15T11:29:50.911Z,1.27
2018-09-15T11:32:18.996Z,1.37
2018-09-15T11:34:47.107Z,1.67
2018-09-15T11:37:15.202Z,1.40
2018-09-15T11:39:43.383Z,1.00
2018-09-15T11:42:11.475Z,1.23
2018-09-15T11:44:39.560Z,1.50
2018-09-15T11:47:07.647Z,1.13
2018-09-15T11:49:35.726Z,1.40
2018-09-15T11:52:03.823Z,1.60
2018-09-15T11:54:31.930Z,1.63
2018-09-15T11:57:00.023Z,1.20
2018-09-15T11:59:28.127Z,1.27
2018-09-15T12:01:56.274Z,1.03
2018-09-15T12:04:24.368Z,1.27
2018-09-15T12:06:52.458Z,1.53
2018-09-15T12:09:20.535Z,1.50
2018-09-15T12:11:48.660Z,1.53
2018-09-15T12:14:16.810Z,1.40
2018-09-15T12:16:44.857Z,1.47
2018-09-15T12:19:12.973Z,1.23
2018-09-15T12:21:41.127Z,1.50
2018-09-15T12:24:09.164Z,1.00
2018-09-15T12:26:37.271Z,1.20
2018-09-15T12:29:05.384Z,1.40
2018-09-15T12:31:33.499Z,1.10
2018-09-15T12:34:01.606Z,0.93
2018-09-15T12:36:29.723Z,0.87
2018-09-15T12:38:57.818Z,1.37
2018-09-15T12:41:25.934Z,1.00
2018-09-15T12:43:54.041Z,1.40
2018-09-15T12:46:22.134Z,0.93
2018-09-15T12:48:50.236Z,1.03
2018-09-15T12:51:18.319Z,1.57
2018-09-15T12:53:46.418Z,1.13
2018-09-15T12:56:14.638Z,1.50
2018-09-15T12:58:42.764Z,0.97
2018-09-15T13:01:10.858Z,0.83
2018-09-15T13:03:38.970Z,1.30
2018-09-15T13:06:07.457Z,1.27
2018-09-15T13:08:35.564Z,0.80
2018-09-15T13:11:03.672Z,1.10
2018-09-15T13:13:31.822Z,1.10
2018-09-15T13:15:59.928Z,1.17
2018-09-15T13:18:28.047Z,1.00
2018-09-15T13:20:56.143Z,1.07
2018-09-15T13:23:24.254Z,1.00
2018-09-15T13:25:52.350Z,0.80
2018-09-15T13:28:20.455Z,1.10
2018-09-15T13:30:48.543Z,1.00
2018-09-15T13:33:16.646Z,0.87
2018-09-15T13:35:44.736Z,1.00
2018-09-15T13:38:12.837Z,1.03
2018-09-15T13:40:40.940Z,1.23
2018-09-15T13:43:09.079Z,0.90
2018-09-15T13:45:37.210Z,1.20
2018-09-15T13:48:05.323Z,0.80
2018-09-15T13:50:33.401Z,1.17
2018-09-15T13:53:01.507Z,1.10
2018-09-15T13:55:29.599Z,1.17
2018-09-15T13:57:57.716Z,1.27
2018-09-15T14:00:25.819Z,1.23
2018-09-15T14:02:53.926Z,1.27
2018-09-15T14:05:22.027Z,1.27
2018-09-15T14:07:50.139Z,1.30
2018-09-15T14:10:19.008Z,1.13
2018-09-15T14:12:46.320Z,1.47
2018-09-15T14:15:14.428Z,1.50
2018-09-15T14:17:42.503Z,1.40
2018-09-15T14:20:10.684Z,1.93
2018-09-15T14:22:38.756Z,1.50
2018-09-15T14:25:06.833Z,2.23
2018-09-15T14:27:34.922Z,2.37
2018-09-15T14:30:03.021Z,1.70
2018-09-15T14:32:31.103Z,1.97
2018-09-15T14:34:59.234Z,1.77
2018-09-15T14:37:27.266Z,1.57
2018-09-15T14:39:55.349Z,2.10
2018-09-15T14:42:23.431Z,2.20
2018-09-15T14:44:51.544Z,1.63
2018-09-15T14:47:19.844Z,1.50
2018-09-15T14:49:47.937Z,2.00
2018-09-15T14:52:16.019Z,1.60
2018-09-15T14:54:44.108Z,1.40
2018-09-15T14:57:12.197Z,2.00
2018-09-15T14:59:40.301Z,2.00
2018-09-15T15:02:08.794Z,1.60
2018-09-15T15:04:36.871Z,1.40
2018-09-15T15:07:05.387Z,1.43
2018-09-15T15:09:33.471Z,1.33
2018-09-15T15:12:01.561Z,1.33
2018-09-15T15:14:29.652Z,1.73
2018-09-15T15:16:57.759Z,1.60
2018-09-15T15:19:25.840Z,1.57
2018-09-15T15:21:53.944Z,1.47
2018-09-15T15:24:22.023Z,1.80
2018-09-15T15:26:50.107Z,1.50
2018-09-15T15:29:18.244Z,1.43
2018-09-15T15:31:46.435Z,1.50
2018-09-15T15:34:14.451Z,1.20
2018-09-15T15:36:42.527Z,1.47
2018-09-15T15:39:10.626Z,1.60
2018-09-15T15:41:38.697Z,1.40
2018-09-15T15:44:06.811Z,1.90
2018-09-15T15:46:34.891Z,1.60
2018-09-15T15:49:03.528Z,1.80
2018-09-15T15:51:31.655Z,2.40
2018-09-15T15:53:59.689Z,1.50
2018-09-15T15:56:27.774Z,1.80
2018-09-15T15:58:56.002Z,1.50
2018-09-15T16:01:23.953Z,1.40
2018-09-15T16:03:52.442Z,1.30
2018-09-15T16:06:20.556Z,1.30
2018-09-15T16:08:49.006Z,2.07
2018-09-15T16:11:17.132Z,1.73
2018-09-15T16:13:45.174Z,1.70
2018-09-15T16:16:13.293Z,2.70
2018-09-15T16:18:41.366Z,1.57
2018-09-15T16:21:09.457Z,2.03
2018-09-15T16:23:37.527Z,1.60
2018-09-15T16:26:05.615Z,1.60
2018-09-15T16:28:33.702Z,1.40
2018-09-15T16:31:01.781Z,2.17
2018-09-15T16:33:29.857Z,1.40
2018-09-15T16:35:57.927Z,2.00
2018-09-15T16:38:26.013Z,2.40
2018-09-15T16:40:54.124Z,2.00
2018-09-15T16:43:22.188Z,1.90
2018-09-15T16:45:50.391Z,3.23
2018-09-15T16:48:18.453Z,1.60
2018-09-15T16:50:46.530Z,2.10
2018-09-15T16:53:14.684Z,1.87
2018-09-15T16:55:42.755Z,2.70
2018-09-15T16:58:10.879Z,2.70
2018-09-15T17:00:39.014Z,1.80
2018-09-15T17:03:07.081Z,2.17
2018-09-15T17:05:35.287Z,2.30
2018-09-15T17:08:03.382Z,2.43
2018-09-15T17:10:31.529Z,1.60
2018-09-15T17:12:59.662Z,2.17
2018-09-15T17:15:27.786Z,2.63
2018-09-15T17:17:55.922Z,2.23
2018-09-15T17:20:24.028Z,2.30
2018-09-15T17:22:52.176Z,2.60
2018-09-15T17:25:20.315Z,2.27
2018-09-15T17:27:48.501Z,2.73
2018-09-15T17:30:16.585Z,2.70
2018-09-15T17:32:44.718Z,2.30
2018-09-15T17:35:12.801Z,1.93
2018-09-15T17:37:40.968Z,2.20
2018-09-15T17:40:09.048Z,2.50
2018-09-15T17:42:37.154Z,2.50
2018-09-15T17:45:05.251Z,2.47
2018-09-15T17:47:33.347Z,2.70
2018-09-15T17:50:01.427Z,2.20
2018-09-15T17:52:29.510Z,2.67
2018-09-15T17:54:57.670Z,2.50
2018-09-15T17:57:25.822Z,2.57
2018-09-15T17:59:53.896Z,2.90
2018-09-15T18:02:22.052Z,2.63
2018-09-15T18:04:50.152Z,2.80
2018-09-15T18:07:18.232Z,2.40
2018-09-15T18:09:46.716Z,2.90
2018-09-15T18:12:14.752Z,1.90
2018-09-15T18:14:42.958Z,2.33
2018-09-15T18:17:11.080Z,2.60
2018-09-15T18:19:39.184Z,2.23
2018-09-15T18:22:07.337Z,2.53
2018-09-15T18:24:35.396Z,2.43
2018-09-15T18:27:03.499Z,2.43
2018-09-15T18:29:31.635Z,3.00
2018-09-15T18:31:59.747Z,3.00
2018-09-15T18:34:27.837Z,2.63
2018-09-15T18:36:56.037Z,2.97
2018-09-15T18:39:24.035Z,3.20
2018-09-15T18:41:52.135Z,2.80
2018-09-15T18:44:20.227Z,2.40
2018-09-15T18:46:48.344Z,2.67
2018-09-15T18:49:16.459Z,2.70
2018-09-15T18:51:44.570Z,3.23
2018-09-15T18:54:12.658Z,3.37
2018-09-15T18:56:40.759Z,3.17
2018-09-15T18:59:08.883Z,3.47
2018-09-15T19:01:36.974Z,2.90
2018-09-15T19:04:05.054Z,3.33
2018-09-15T19:06:33.199Z,2.60
2018-09-15T19:09:01.295Z,3.00
2018-09-15T19:11:29.379Z,3.13
2018-09-15T19:13:57.474Z,3.10
2018-09-15T19:16:25.562Z,3.20
2018-09-15T19:18:53.655Z,3.27
2018-09-15T19:21:21.730Z,3.20
2018-09-15T19:23:49.808Z,3.43
2018-09-15T19:26:17.897Z,4.10
2018-09-15T19:28:45.996Z,3.30
2018-09-15T19:31:14.157Z,2.70
2018-09-15T19:33:42.251Z,3.50
2018-09-15T19:36:10.332Z,3.43
2018-09-15T19:38:38.416Z,3.13
2018-09-15T19:41:06.498Z,3.27
2018-09-15T19:43:34.576Z,3.70
2018-09-15T19:46:02.651Z,3.97
2018-09-15T19:48:30.763Z,3.60
2018-09-15T19:50:58.890Z,3.20
2018-09-15T19:53:26.987Z,3.70
2018-09-15T19:55:55.054Z,3.30
2018-09-15T19:58:23.143Z,3.77
2018-09-15T20:00:51.255Z,4.10
2018-09-15T20:03:19.351Z,3.90
2018-09-15T20:05:47.435Z,3.80
2018-09-15T20:08:15.540Z,3.87
2018-09-15T20:10:43.630Z,3.40
2018-09-15T20:13:11.749Z,4.10
2018-09-15T20:15:38.924Z,4.13
2018-09-15T20:18:06.099Z,3.87
2018-09-15T20:20:33.280Z,5.40
2018-09-15T20:23:01.380Z,3.63
2018-09-15T20:25:29.476Z,4.47
2018-09-15T20:27:57.567Z,4.10
2018-09-15T20:30:25.671Z,3.97
2018-09-15T20:32:53.802Z,3.97
2018-09-15T20:35:21.859Z,6.50
2018-09-15T20:37:49.985Z,4.40
2018-09-15T20:40:18.093Z,4.67
2018-09-15T20:42:46.214Z,5.07
2018-09-15T20:45:14.379Z,4.57
2018-09-15T20:47:42.481Z,4.87
2018-09-15T20:50:10.579Z,4.27
2018-09-15T20:52:38.674Z,4.50
2018-09-15T20:55:07.208Z,4.27
2018-09-15T20:57:35.326Z,4.63
2018-09-15T21:00:03.428Z,4.43
2018-09-15T21:02:31.523Z,5.27
2018-09-15T21:04:59.615Z,4.60
2018-09-15T21:07:27.703Z,4.50
2018-09-15T21:09:55.808Z,4.90
2018-09-15T21:12:23.883Z,4.70
2018-09-15T21:14:51.969Z,5.50
2018-09-15T21:17:20.073Z,5.50
2018-09-15T21:19:48.163Z,4.70
2018-09-15T21:22:16.274Z,5.40
2018-09-15T21:24:44.360Z,5.27
2018-09-15T21:27:12.445Z,6.00
2018-09-15T21:29:40.520Z,6.33
2018-09-15T21:32:08.599Z,5.40
2018-09-15T21:34:36.705Z,4.50
2018-09-15T21:37:04.782Z,5.70
2018-09-15T21:39:32.983Z,5.53
2018-09-15T21:42:01.075Z,4.37
2018-09-15T21:44:29.162Z,5.30
2018-09-15T21:46:57.246Z,4.97
2018-09-15T21:49:25.338Z,4.67
2018-09-15T21:51:53.443Z,5.53
2018-09-15T21:54:21.543Z,4.93
2018-09-15T21:56:49.646Z,5.63
2018-09-15T21:59:17.894Z,4.97
2018-09-15T22:01:45.966Z,5.27
2018-09-15T22:04:19.282Z,4.57
2018-09-15T22:06:47.817Z,5.13
2018-09-15T22:09:15.920Z,5.00
2018-09-15T22:11:44.514Z,4.67
2018-09-15T22:14:12.726Z,4.40
2018-09-15T22:16:41.384Z,4.60
2018-09-15T22:19:09.526Z,3.80
2018-09-15T22:21:37.619Z,4.50
2018-09-15T22:24:06.219Z,4.60
2018-09-15T22:26:34.500Z,4.93
2018-09-15T22:29:02.867Z,4.60
2018-09-15T22:31:30.984Z,4.60
2018-09-15T22:34:00.039Z,4.40
2018-09-15T22:36:28.129Z,4.80
2018-09-15T22:38:56.276Z,4.60
2018-09-15T22:41:24.379Z,5.77
2018-09-15T22:43:52.499Z,5.30
2018-09-15T22:46:21.033Z,5.60
2018-09-15T22:48:49.121Z,5.80
2018-09-15T22:51:17.395Z,5.77
2018-09-15T22:53:45.500Z,5.00
2018-09-15T22:56:13.610Z,5.70
2018-09-15T22:58:41.703Z,5.20
2018-09-15T23:01:09.812Z,5.70
2018-09-15T23:03:38.071Z,5.90
2018-09-15T23:06:06.415Z,5.17
2018-09-15T23:08:34.918Z,5.83
2018-09-15T23:11:03.024Z,5.37
2018-09-15T23:13:31.202Z,6.00
2018-09-15T23:15:59.303Z,5.37
2018-09-15T23:18:27.409Z,4.70
2018-09-15T23:20:55.524Z,5.27
2018-09-15T23:23:23.738Z,5.47
2018-09-15T23:25:51.848Z,5.73
2018-09-15T23:28:19.940Z,5.13
2018-09-15T23:30:48.040Z,5.67
2018-09-15T23:33:16.138Z,5.93
2018-09-15T23:35:44.250Z,5.97
2018-09-15T23:38:12.352Z,6.20
2018-09-15T23:40:40.446Z,7.20
2018-09-15T23:43:08.573Z,6.43
2018-09-15T23:45:36.661Z,6.87
2018-09-15T23:48:04.770Z,6.60
2018-09-15T23:50:32.998Z,6.87
2018-09-15T23:53:01.090Z,6.67
2018-09-15T23:55:29.276Z,6.60
2018-09-15T23:57:57.384Z,6.23
